11 de agosto de 2022

Hora Código Tiempo Temp. Visibilidad Cielo nuboso Viento METAR/SPECI
18:50
V
28 °C 10 km+ - 060° 060° 8 kt METAR EDTY 111650Z 06008KT CAVOK 28/05 Q1019
18:20
V
28 °C 10 km+ - 060° 060° 10 kt METAR EDTY 111620Z 06010KT CAVOK 28/05 Q1019
17:50
V
28 °C 10 km+ - 080° 080° 11 kt METAR EDTY 111550Z 08011KT 050V110 CAVOK 28/05 Q1019
17:20
V
28 °C 10 km+ - 050° 050° 12 kt METAR EDTY 111520Z 05012KT CAVOK 28/05 Q1019
16:50
V
28 °C 10 km+ - 070° 070° 12 kt METAR EDTY 111450Z 07012KT CAVOK 28/06 Q1020
16:20
V
28 °C 10 km+ - 060° 060° 9 kt METAR EDTY 111420Z 06009KT 010V100 CAVOK 28/05 Q1020
15:50
V
28 °C 10 km+ - Var Var 7 kt METAR EDTY 111350Z VRB07KT CAVOK 28/05 Q1020
14:50
V
27 °C 10 km+ - 100° 100° 12 kt METAR EDTY 111250Z 10012KT 070V130 CAVOK 27/04 Q1021
14:20
V
27 °C 10 km+ - 070° 070° 12 kt METAR EDTY 111220Z 07012KT 020V110 CAVOK 27/05 Q1021
13:50
V
27 °C 10 km+ - 060° 060° 11 kt METAR EDTY 111150Z 06011KT 020V100 CAVOK 27/05 Q1021
13:20
V
27 °C 10 km+ - 070° 070° 16 kt METAR EDTY 111120Z 07016KT CAVOK 27/05 Q1021
12:50
V
26 °C 10 km+ - 070° 070° 12 kt METAR EDTY 111050Z 07012KT 040V130 CAVOK 26/04 Q1022
12:20
V
27 °C 10 km+ - 070° 070° 13 kt METAR EDTY 111020Z 07013KT CAVOK 27/06 Q1022
11:50
V
26 °C 10 km+ - 080° 080° 13 kt METAR EDTY 110950Z 08013KT 050V110 CAVOK 26/06 Q1022
11:20
V
25 °C 10 km+ - 070° 070° 14 kt METAR EDTY 110920Z 07014KT CAVOK 25/06 Q1022
10:50
V
24 °C 10 km+ - 080° 080° 15 kt METAR EDTY 110850Z 08015KT 050V110 CAVOK 24/07 Q1022
10:20
V
23 °C 10 km+ - 090° 090° 11 kt METAR EDTY 110820Z 09011KT CAVOK 23/08 Q1022
09:50
V
23 °C 10 km+ - 090° 090° 12 kt METAR EDTY 110750Z 09012KT CAVOK 23/09 Q1022
09:20
V
21 °C 10 km+ - 090° 090° 9 kt METAR EDTY 110720Z 09009KT 060V120 CAVOK 21/09 Q1022
08:50
V
20 °C 10 km+ - 080° 080° 7 kt METAR EDTY 110650Z 08007KT CAVOK 20/08 Q1022
08:20
V
18 °C 10 km+ - 090° 090° 5 kt METAR EDTY 110620Z 09005KT CAVOK 18/08 Q1022
07:50
V
16 °C 10 km+ - 090° 090° 5 kt METAR EDTY 110550Z 09005KT CAVOK 16/08 Q1022
07:20
V
14 °C 10 km+ - 090° 090° 6 kt METAR EDTY 110520Z 09006KT CAVOK 14/08 Q1022
06:50
V
12 °C 10 km+ - 090° 090° 6 kt METAR EDTY 110450Z 09006KT CAVOK 12/07 Q1022
06:20
V
12 °C 10 km+ - 080° 080° 6 kt METAR EDTY 110420Z AUTO 08006KT 9999 // NCD 12/07 Q1022
05:50
V
11 °C 10 km+ - 080° 080° 6 kt METAR EDTY 110350Z AUTO 08006KT 9999 // NCD 11/06 Q1022
05:20
V
12 °C 10 km+ - 090° 090° 6 kt METAR EDTY 110320Z AUTO 09006KT 9999 // FEW073/// 12/06 Q1022
04:50
V
13 °C 10 km+ - 090° 090° 5 kt METAR EDTY 110250Z AUTO 09005KT 9999 // NCD 13/06 Q1022
04:20
V
13 °C 10 km+ - 090° 090° 6 kt METAR EDTY 110220Z AUTO 09006KT 9999 // NCD 13/07 Q1022
03:50
V
13 °C 10 km+ - 080° 080° 6 kt METAR EDTY 110150Z AUTO 08006KT 9999 // NCD 13/06 Q1022
03:20
V
14 °C 10 km+ - 090° 090° 6 kt METAR EDTY 110120Z AUTO 09006KT 9999 // NCD 14/06 Q1022
02:50
V
14 °C 10 km+ - 090° 090° 6 kt METAR EDTY 110050Z AUTO 09006KT 9999 // NCD 14/06 Q1023
02:20
V
15 °C 10 km+ - 080° 080° 5 kt METAR EDTY 110020Z AUTO 08005KT 9999 // NCD 15/06 Q1022
01:50
V
16 °C 10 km+ - 080° 080° 5 kt METAR EDTY 102350Z AUTO 08005KT 9999 // NCD 16/06 Q1022
01:20
V
16 °C 10 km+ - 090° 090° 5 kt METAR EDTY 102320Z AUTO 09005KT 9999 // NCD 16/05 Q1022
00:50
V
17 °C 10 km+ - 090° 090° 4 kt METAR EDTY 102250Z AUTO 09004KT 9999 // NCD 17/05 Q1023
00:20
V
18 °C 10 km+ - 080° 080° 4 kt METAR EDTY 102220Z AUTO 08004KT 9999 // NCD 18/06 Q1023

10 de agosto de 2022

Hora Código Tiempo Temp. Visibilidad Cielo nuboso Viento METAR/SPECI
23:50
V
18 °C 10 km+ - 090° 090° 5 kt METAR EDTY 102150Z AUTO 09005KT 9999 // NCD 18/06 Q1023
23:20
V
18 °C 10 km+ - 100° 100° 6 kt METAR EDTY 102120Z AUTO 10006KT 9999 // NCD 18/06 Q1023
22:50
V
19 °C 10 km+ - 100° 100° 4 kt METAR EDTY 102050Z AUTO 10004KT 9999 // NCD 19/06 Q1023
22:20
V
20 °C 10 km+ - 080° 080° 4 kt METAR EDTY 102020Z AUTO 08004KT 9999 // NCD 20/06 Q1023
21:50
V
20 °C 10 km+ - 070° 070° 5 kt METAR EDTY 101950Z AUTO 07005KT 9999 // NCD 20/05 Q1023
21:20
V
21 °C 10 km+ - 090° 090° 5 kt METAR EDTY 101920Z AUTO 09005KT 9999 // NCD 21/05 Q1022
20:50
V
21 °C 10 km+ - 100° 100° 6 kt METAR EDTY 101850Z AUTO 10006KT 9999 // NCD 21/06 Q1022
20:20
V
24 °C 10 km+ - 090° 090° 9 kt METAR EDTY 101820Z AUTO 09009KT 9999 // NCD 24/06 Q1022
19:50
V
26 °C 10 km+ - 090° 090° 9 kt METAR EDTY 101750Z 09009KT CAVOK 26/05 Q1022
19:20
V
26 °C 10 km+ - 100° 100° 10 kt METAR EDTY 101720Z 10010KT CAVOK 26/05 Q1022
18:50
V
27 °C 10 km+ - 100° 100° 12 kt METAR EDTY 101650Z 10012KT CAVOK 27/05 Q1022
18:20
V
27 °C 10 km+ - 100° 100° 10 kt METAR EDTY 101620Z 10010KT 060V130 CAVOK 27/06 Q1022
17:50
V
27 °C 10 km+ - 080° 080° 10 kt METAR EDTY 101550Z 08010KT CAVOK 27/05 Q1022
17:20
V
27 °C 10 km+ - 060° 060° 12 kt METAR EDTY 101520Z 06012KT CAVOK 27/05 Q1023
16:50
V
28 °C 10 km+ - 090° 090° 10 kt METAR EDTY 101450Z 09010KT 050V150 CAVOK 28/05 Q1023
16:20
V
28 °C 10 km+ - 100° 100° 12 kt METAR EDTY 101420Z 10012KT 050V130 CAVOK 28/04 Q1023
15:50
V
28 °C 10 km+ - 100° 100° 12 kt METAR EDTY 101350Z 10012KT 060V130 CAVOK 28/05 Q1023
15:20
V
27 °C 10 km+ - 070° 070° 11 - 22 kt METAR EDTY 101320Z 07011G22KT 010V120 CAVOK 27/05 Q1024
14:50
V
27 °C 10 km+ - 090° 090° 8 kt METAR EDTY 101250Z 09008KT 060V140 CAVOK 27/05 Q1024
14:20
V
27 °C 10 km+ - 080° 080° 11 kt METAR EDTY 101220Z 08011KT 030V110 CAVOK 27/06 Q1024
13:50
V
27 °C 10 km+ - 080° 080° 13 kt METAR EDTY 101150Z 08013KT 040V110 CAVOK 27/05 Q1024
13:20
V
27 °C 10 km+ - 090° 090° 13 kt METAR EDTY 101120Z 09013KT 060V120 CAVOK 27/05 Q1024
12:50
V
26 °C 10 km+ - 080° 080° 13 kt METAR EDTY 101050Z 08013KT 040V120 CAVOK 26/06 Q1024
12:20
V
26 °C 10 km+ - 110° 110° 15 kt METAR EDTY 101020Z 11015KT 080V140 CAVOK 26/06 Q1025
11:50
V
25 °C 10 km+ - 110° 110° 14 kt METAR EDTY 100950Z 11014KT 080V140 CAVOK 25/05 Q1025
11:20
V
25 °C 10 km+ - 080° 080° 15 kt METAR EDTY 100920Z 08015KT CAVOK 25/06 Q1025
10:50
V
25 °C 10 km+ - 090° 090° 15 kt METAR EDTY 100850Z 09015KT CAVOK 25/08 Q1025
10:20
V
24 °C 10 km+ - 110° 110° 13 kt METAR EDTY 100820Z 11013KT CAVOK 24/08 Q1025
09:50
V
23 °C 10 km+ - 090° 090° 10 kt METAR EDTY 100750Z 09010KT CAVOK 23/09 Q1025
09:20
V
22 °C 10 km+ - 100° 100° 7 kt METAR EDTY 100720Z 10007KT 070V130 CAVOK 22/09 Q1025
08:50
V
20 °C 10 km+ - 100° 100° 5 kt METAR EDTY 100650Z 10005KT 070V130 CAVOK 20/09 Q1025
08:20
V
18 °C 10 km+ - 090° 090° 4 kt METAR EDTY 100620Z 09004KT CAVOK 18/09 Q1025
07:50
V
16 °C 10 km+ - 080° 080° 5 kt METAR EDTY 100550Z 08005KT CAVOK 16/09 Q1025
07:20
V
14 °C 10 km+ - 090° 090° 5 kt METAR EDTY 100520Z 09005KT CAVOK 14/08 Q1025
06:50
V
13 °C 10 km+ - 100° 100° 6 kt METAR EDTY 100450Z 10006KT CAVOK 13/08 Q1025
06:20
V
12 °C 10 km+ - 100° 100° 5 kt METAR EDTY 100420Z AUTO 10005KT 9999 // NCD 12/07 Q1025
05:50
V
12 °C 10 km+ - 100° 100° 6 kt METAR EDTY 100350Z AUTO 10006KT 9999 // NCD 12/07 Q1025
05:20
V
13 °C 10 km+ - 100° 100° 6 kt METAR EDTY 100320Z AUTO 10006KT 9999 // NCD 13/07 Q1025
04:50
V
13 °C 10 km+ - 100° 100° 6 kt METAR EDTY 100250Z AUTO 10006KT 9999 // NCD 13/07 Q1025
04:20
V
12 °C 10 km+ - 090° 090° 6 kt METAR EDTY 100220Z AUTO 09006KT 9999 // NCD 12/07 Q1025
03:50
V
13 °C 10 km+ - 080° 080° 5 kt METAR EDTY 100150Z AUTO 08005KT 9999 // NCD 13/07 Q1025
03:20
V
14 °C 10 km+ - 100° 100° 6 kt METAR EDTY 100120Z AUTO 10006KT 9999 // NCD 14/07 Q1025
02:50
V
14 °C 10 km+ - 100° 100° 6 kt METAR EDTY 100050Z AUTO 10006KT 9999 // NCD 14/07 Q1025
02:20
V
14 °C 10 km+ - 080° 080° 6 kt METAR EDTY 100020Z AUTO 08006KT 9999 // NCD 14/07 Q1025
01:50
V
15 °C 10 km+ - 090° 090° 6 kt METAR EDTY 092350Z AUTO 09006KT 9999 // NCD 15/07 Q1025
01:20
V
17 °C 10 km+ - 080° 080° 6 kt METAR EDTY 092320Z AUTO 08006KT 9999 // NCD 17/07 Q1025
00:50
V
17 °C 10 km+ - 080° 080° 6 kt METAR EDTY 092250Z AUTO 08006KT 9999 // NCD 17/07 Q1025
00:20
V
18 °C 10 km+ - 090° 090° 6 kt METAR EDTY 092220Z AUTO 09006KT 9999 // NCD 18/07 Q1025

9 de agosto de 2022

Hora Código Tiempo Temp. Visibilidad Cielo nuboso Viento METAR/SPECI
23:50
V
17 °C 10 km+ - 100° 100° 6 kt METAR EDTY 092150Z AUTO 10006KT 9999 // NCD 17/06 Q1025
23:20
V
18 °C 10 km+ - 100° 100° 5 kt METAR EDTY 092120Z AUTO 10005KT 9999 // NCD 18/06 Q1025
22:50
V
21 °C 10 km+ - 100° 100° 4 kt METAR EDTY 092050Z AUTO 10004KT 9999 // NCD 21/06 Q1025
22:20
V
20 °C 10 km+ - 090° 090° 5 kt METAR EDTY 092020Z AUTO 09005KT 9999 // NCD 20/06 Q1025
21:50
V
22 °C 10 km+ - 050° 050° 6 kt METAR EDTY 091950Z AUTO 05006KT 9999 // NCD 22/06 Q1024
21:20
V
23 °C 10 km+ - 050° 050° 6 kt METAR EDTY 091920Z AUTO 05006KT 9999 // NCD 23/06 Q1024
20:50
V
23 °C 10 km+ - 050° 050° 6 kt METAR EDTY 091850Z AUTO 05006KT 9999 // NCD 23/06 Q1024
20:20
V
25 °C 10 km+ - 050° 050° 6 kt METAR EDTY 091820Z AUTO 05006KT 9999 // NCD 25/06 Q1024
19:50
V
26 °C 10 km+ - 060° 060° 9 kt METAR EDTY 091750Z 06009KT CAVOK 26/06 Q1024
19:20
V
27 °C 10 km+ - 060° 060° 8 kt METAR EDTY 091720Z 06008KT CAVOK 27/06 Q1024
18:50
V
27 °C 10 km+ - 070° 070° 9 kt METAR EDTY 091650Z 07009KT CAVOK 27/06 Q1024
18:20
V
28 °C 10 km+ - 060° 060° 9 kt METAR EDTY 091620Z 06009KT 030V090 CAVOK 28/05 Q1024
17:50
V
28 °C 10 km+ - 050° 050° 10 kt METAR EDTY 091550Z 05010KT 010V090 CAVOK 28/05 Q1024
17:20
V
28 °C 10 km+ - 050° 050° 11 kt METAR EDTY 091520Z 05011KT 010V080 CAVOK 28/06 Q1024
16:50
V
28 °C 10 km+ - 060° 060° 11 kt METAR EDTY 091450Z 06011KT 020V100 CAVOK 28/06 Q1024
Datos más antiguos

Nosotros y terceros seguimos tu comportamiento en Internet en nuestro sitio web con cookies. Si continúas, asumimos que estás de acuerdo con nuestra política de cookies. Más información